East Liberty, Pennsylvania
Current Conditions -  °F | °C
As of 5:53 AM on Friday 31 Oct 2014 (Local Time) from KAGC Reporting Station
Overcast Overcast  
Wind Chill:   Ceiling: 4700
Heat Index:   Visibility: 10mi
Dew Point:   Wind: 5mph
Humidity: 68%   Direction: 200°SSW
Pressure: 29.96"   Gusts: NA
Location:  40.4715°N, 79.9138°W
Report Text: KAGC 310953Z 20004KT 10SM OVC047 07/01 A2996 RMK AO2 SLP155 T00670011
Loading
Personal Weather Stations






























Interactive Weather Map
Tropical Storm Tracking
New forecast layout! Learn more

10-Day Weather Forecast

Advertisements
Track Severe Weather on mobile